createdAt,value
2019-03-18T00:00:24.349Z,94694.02
2019-03-18T00:02:50.514Z,94698.22
2019-03-18T00:05:16.689Z,94710.92
2019-03-18T00:07:44.147Z,94707.23
2019-03-18T00:10:10.231Z,94703.89
2019-03-18T00:12:36.613Z,94712.05
2019-03-18T00:15:04.889Z,94721.02
2019-03-18T00:17:31.056Z,94716.74
2019-03-18T00:19:57.138Z,94718.02
2019-03-18T00:22:23.285Z,94711.27
2019-03-18T00:24:49.567Z,94710.30
2019-03-18T00:27:15.818Z,94711.08
2019-03-18T00:29:42.040Z,94706.95
2019-03-18T00:32:08.083Z,94700.16
2019-03-18T00:34:34.414Z,94703.38
2019-03-18T00:37:00.602Z,94697.66
2019-03-18T00:39:26.737Z,94699.27
2019-03-18T00:41:53.015Z,94702.14
2019-03-18T00:44:19.347Z,94705.59
2019-03-18T00:46:45.740Z,94713.21
2019-03-18T00:49:11.922Z,94715.86
2019-03-18T00:51:38.106Z,94725.34
2019-03-18T00:54:04.349Z,94724.71
2019-03-18T00:56:30.424Z,94726.19
2019-03-18T00:58:56.593Z,94724.28
2019-03-18T01:01:22.938Z,94732.67
2019-03-18T01:03:48.987Z,94730.19
2019-03-18T01:06:15.160Z,94727.85
2019-03-18T01:08:41.461Z,94732.44
2019-03-18T01:11:07.741Z,94733.25
2019-03-18T01:13:33.865Z,94741.64
2019-03-18T01:16:00.153Z,94738.92
2019-03-18T01:18:26.318Z,94740.83
2019-03-18T01:20:52.381Z,94729.56
2019-03-18T01:23:18.396Z,94729.11
2019-03-18T01:25:44.717Z,94724.71
2019-03-18T01:28:10.779Z,94722.85
2019-03-18T01:30:36.855Z,94719.12
2019-03-18T01:33:05.027Z,94717.52
2019-03-18T01:35:30.979Z,94700.51
2019-03-18T01:37:57.268Z,94711.57
2019-03-18T01:40:23.404Z,94725.98
2019-03-18T01:42:49.665Z,94729.94
2019-03-18T01:45:17.097Z,94725.39
2019-03-18T01:47:43.070Z,94717.47
2019-03-18T01:50:10.617Z,94715.06
2019-03-18T01:52:36.808Z,94730.55
2019-03-18T01:55:04.654Z,94741.75
2019-03-18T01:57:30.719Z,94758.73
2019-03-18T01:59:56.910Z,94773.72
2019-03-18T02:02:23.056Z,94817.58
2019-03-18T02:04:49.069Z,94828.64
2019-03-18T02:07:16.462Z,94819.29
2019-03-18T02:09:42.509Z,94824.03
2019-03-18T02:12:08.579Z,94852.48
2019-03-18T02:14:34.788Z,94851.02
2019-03-18T02:17:00.920Z,94865.38
2019-03-18T02:19:26.953Z,94870.09
2019-03-18T02:21:53.014Z,94887.86
2019-03-18T02:24:19.202Z,94898.87
2019-03-18T02:26:45.374Z,94913.30
2019-03-18T02:29:11.514Z,94905.29
2019-03-18T02:31:37.543Z,94916.44
2019-03-18T02:34:03.634Z,94916.94
2019-03-18T02:36:29.842Z,94934.04
2019-03-18T02:38:56.160Z,94931.84
2019-03-18T02:41:22.416Z,94939.02
2019-03-18T02:43:48.379Z,94943.25
2019-03-18T02:46:14.508Z,94950.44
2019-03-18T02:48:40.788Z,94958.77
2019-03-18T02:51:07.020Z,94950.57
2019-03-18T02:53:33.153Z,94956.16
2019-03-18T02:55:59.295Z,94959.81
2019-03-18T02:58:25.598Z,94961.41
2019-03-18T03:00:51.778Z,94966.78
2019-03-18T03:03:17.830Z,94971.59
2019-03-18T03:05:43.878Z,94971.74
2019-03-18T03:08:09.957Z,94983.55
2019-03-18T03:10:36.052Z,94993.45
2019-03-18T03:13:02.056Z,94992.13
2019-03-18T03:15:28.093Z,95005.88
2019-03-18T03:17:54.292Z,95012.48
2019-03-18T03:20:20.460Z,95021.00
2019-03-18T03:22:46.684Z,95013.61
2019-03-18T03:25:15.905Z,95030.33
2019-03-18T03:27:42.015Z,95014.55
2019-03-18T03:30:12.913Z,95035.60
2019-03-18T03:32:39.073Z,95039.40
2019-03-18T03:35:06.159Z,95038.47
2019-03-18T03:37:32.099Z,95047.55
2019-03-18T03:39:58.294Z,95047.27
2019-03-18T03:42:24.502Z,95055.57
2019-03-18T03:44:50.649Z,95063.05
2019-03-18T03:47:16.845Z,95061.56
2019-03-18T03:49:42.772Z,95067.27
2019-03-18T03:52:08.978Z,95072.38
2019-03-18T03:54:35.043Z,95077.66
2019-03-18T03:57:01.318Z,95078.08
2019-03-18T03:59:27.386Z,95091.66
2019-03-18T04:01:53.625Z,95096.97
2019-03-18T04:04:19.639Z,95102.81
2019-03-18T04:06:45.930Z,95114.55
2019-03-18T04:09:12.211Z,95125.34
2019-03-18T04:11:38.263Z,95120.56
2019-03-18T04:14:04.312Z,95122.23
2019-03-18T04:16:30.415Z,95134.09
2019-03-18T04:18:56.521Z,95153.50
2019-03-18T04:21:22.673Z,95146.25
2019-03-18T04:23:48.957Z,95151.53
2019-03-18T04:26:15.132Z,95156.80
2019-03-18T04:28:41.258Z,95148.91
2019-03-18T04:31:07.433Z,95162.48
2019-03-18T04:33:33.395Z,95161.47
2019-03-18T04:35:59.466Z,95165.24
2019-03-18T04:38:25.643Z,95173.53
2019-03-18T04:40:51.799Z,95168.81
2019-03-18T04:43:17.923Z,95176.09
2019-03-18T04:45:44.140Z,95180.55
2019-03-18T04:48:10.402Z,95175.40
2019-03-18T04:50:43.778Z,95196.05
2019-03-18T04:53:09.935Z,95199.39
2019-03-18T04:55:36.071Z,95204.65
2019-03-18T04:58:02.103Z,95209.70
2019-03-18T05:00:28.355Z,95223.57
2019-03-18T05:02:54.646Z,95215.88
2019-03-18T05:05:20.873Z,95218.50
2019-03-18T05:07:46.916Z,95210.28
2019-03-18T05:10:13.167Z,95221.70
2019-03-18T05:12:39.453Z,95210.08
2019-03-18T05:15:09.151Z,95215.47
2019-03-18T05:17:35.302Z,95217.39
2019-03-18T05:20:01.476Z,95218.99
2019-03-18T05:22:27.625Z,95229.09
2019-03-18T05:24:53.801Z,95226.75
2019-03-18T05:27:20.054Z,95226.27
2019-03-18T05:29:46.322Z,95226.47
2019-03-18T05:32:12.460Z,95237.13
2019-03-18T05:34:40.234Z,95242.75
2019-03-18T05:37:06.491Z,95245.59
2019-03-18T05:39:32.829Z,95247.23
2019-03-18T05:41:59.066Z,95252.09
2019-03-18T05:44:25.217Z,95249.95
2019-03-18T05:46:51.449Z,95257.70
2019-03-18T05:49:17.512Z,95254.44
2019-03-18T05:51:43.539Z,95258.74
2019-03-18T05:54:09.735Z,95261.59
2019-03-18T05:56:35.888Z,95271.34
2019-03-18T05:59:02.015Z,95265.18
2019-03-18T06:01:28.274Z,95276.16
2019-03-18T06:03:54.554Z,95273.42
2019-03-18T06:06:20.826Z,95281.02
2019-03-18T06:08:46.852Z,95284.69
2019-03-18T06:11:13.042Z,95278.69
2019-03-18T06:13:39.303Z,95284.36
2019-03-18T06:16:05.230Z,95286.84
2019-03-18T06:18:31.170Z,95298.40
2019-03-18T06:20:57.106Z,95296.66
2019-03-18T06:23:24.566Z,95307.34
2019-03-18T06:25:50.523Z,95312.80
2019-03-18T06:28:16.543Z,95316.80
2019-03-18T06:30:42.512Z,95321.43
2019-03-18T06:33:08.436Z,95316.70
2019-03-18T06:35:34.453Z,95311.04
2019-03-18T06:38:00.408Z,95317.71
2019-03-18T06:40:26.355Z,95318.31
2019-03-18T06:42:52.392Z,95316.39
2019-03-18T06:45:18.425Z,95308.92
2019-03-18T06:47:44.656Z,95311.78
2019-03-18T06:50:11.490Z,95317.04
2019-03-18T06:52:37.541Z,95322.70
2019-03-18T06:55:06.648Z,95326.15
2019-03-18T06:57:32.584Z,95338.08
2019-03-18T06:59:58.602Z,95335.30
2019-03-18T07:02:25.055Z,95341.55
2019-03-18T07:04:51.312Z,95336.69
2019-03-18T07:07:17.581Z,95338.28
2019-03-18T07:09:43.722Z,95334.14
2019-03-18T07:12:10.980Z,95333.64
2019-03-18T07:14:40.024Z,95333.05
2019-03-18T07:17:06.082Z,95334.95
2019-03-18T07:19:32.310Z,95342.82
2019-03-18T07:21:58.500Z,95346.14
2019-03-18T07:24:24.808Z,95355.28
2019-03-18T07:26:51.057Z,95363.77
2019-03-18T07:29:17.382Z,95358.50
2019-03-18T07:31:43.673Z,95353.73
2019-03-18T07:34:09.947Z,95354.86
2019-03-18T07:36:36.228Z,95355.64
2019-03-18T07:39:04.275Z,95365.87
2019-03-18T07:41:30.571Z,95356.56
2019-03-18T07:43:56.842Z,95353.88
2019-03-18T07:46:23.143Z,95361.77
2019-03-18T07:48:49.432Z,95358.22
2019-03-18T07:51:15.719Z,95367.55
2019-03-18T07:53:41.894Z,95353.55
2019-03-18T07:56:10.065Z,95352.27
2019-03-18T07:58:36.480Z,95352.00
2019-03-18T08:01:02.954Z,95349.34
2019-03-18T08:03:29.343Z,95355.81
2019-03-18T08:05:55.662Z,95348.81
2019-03-18T08:08:22.025Z,95338.95
2019-03-18T08:10:48.260Z,95324.81
2019-03-18T08:13:14.598Z,95312.65
2019-03-18T08:15:40.733Z,95325.23
2019-03-18T08:18:07.125Z,95342.55
2019-03-18T08:20:33.056Z,95357.91
2019-03-18T08:23:00.924Z,95366.59
2019-03-18T08:25:27.178Z,95371.28
2019-03-18T08:27:53.405Z,95388.61
2019-03-18T08:30:19.772Z,95396.63
2019-03-18T08:32:46.059Z,95402.06
2019-03-18T08:35:12.330Z,95416.48
2019-03-18T08:37:38.608Z,95419.84
2019-03-18T08:40:08.133Z,95401.83
2019-03-18T08:42:34.509Z,95383.19
2019-03-18T08:45:00.775Z,95395.22
2019-03-18T08:47:27.183Z,95413.05
2019-03-18T08:49:53.474Z,95428.06
2019-03-18T08:52:19.742Z,95440.98
2019-03-18T08:54:45.932Z,95454.38
2019-03-18T08:57:12.263Z,95453.45
2019-03-18T08:59:38.598Z,95440.46
2019-03-18T09:02:04.853Z,95453.75
2019-03-18T09:04:31.379Z,95467.46
2019-03-18T09:06:57.646Z,95467.00
2019-03-18T09:09:23.900Z,95475.78
2019-03-18T09:11:50.267Z,95474.80
2019-03-18T09:14:16.517Z,95470.66
2019-03-18T09:16:42.763Z,95473.34
2019-03-18T09:19:09.399Z,95483.25
2019-03-18T09:21:35.866Z,95489.27
2019-03-18T09:24:02.008Z,95499.98
2019-03-18T09:26:28.281Z,95493.08
2019-03-18T09:28:54.566Z,95491.08
2019-03-18T09:31:20.806Z,95491.23
2019-03-18T09:33:47.149Z,95488.55
2019-03-18T09:36:13.291Z,95486.07
2019-03-18T09:38:39.322Z,95467.56
2019-03-18T09:41:05.343Z,95476.53
2019-03-18T09:43:33.411Z,95462.98
2019-03-18T09:45:59.671Z,95438.05
2019-03-18T09:48:25.827Z,95445.55
2019-03-18T09:50:52.259Z,95461.66
2019-03-18T09:53:18.199Z,95467.98
2019-03-18T09:55:44.474Z,95460.09
2019-03-18T09:58:10.667Z,95450.87
2019-03-18T10:00:36.941Z,95486.34
2019-03-18T10:03:03.056Z,95508.47
2019-03-18T10:05:29.355Z,95515.67
2019-03-18T10:07:55.671Z,95511.17
2019-03-18T10:10:21.942Z,95505.55
2019-03-18T10:12:48.021Z,95505.67
2019-03-18T10:15:16.982Z,95498.77
2019-03-18T10:17:43.351Z,95506.46
2019-03-18T10:20:09.623Z,95503.30
2019-03-18T10:22:36.147Z,95485.08
2019-03-18T10:25:04.402Z,95492.91
2019-03-18T10:27:31.081Z,95494.81
2019-03-18T10:29:57.425Z,95502.68
2019-03-18T10:32:23.733Z,95504.98
2019-03-18T10:34:51.562Z,95501.86
2019-03-18T10:37:17.796Z,95511.43
2019-03-18T10:39:44.220Z,95525.75
2019-03-18T10:42:10.563Z,95527.23
2019-03-18T10:44:37.681Z,95534.34
2019-03-18T10:47:05.484Z,95542.17
2019-03-18T10:49:41.406Z,95535.33
2019-03-18T10:52:00.063Z,95528.25
2019-03-18T10:54:31.066Z,95526.99
2019-03-18T10:56:54.640Z,95512.21
2019-03-18T10:59:20.665Z,95489.76
2019-03-18T11:01:46.674Z,95460.52
2019-03-18T11:04:13.311Z,95480.27
2019-03-18T11:06:39.513Z,95504.47
2019-03-18T11:09:05.689Z,95510.02
2019-03-18T11:11:32.229Z,95501.53
2019-03-18T11:13:58.406Z,95510.64
2019-03-18T11:16:24.684Z,95510.81
2019-03-18T11:18:50.978Z,95522.09
2019-03-18T11:21:17.279Z,95513.67
2019-03-18T11:23:43.537Z,95495.98
2019-03-18T11:26:09.729Z,95497.82
2019-03-18T11:28:36.034Z,95530.62
2019-03-18T11:31:02.379Z,95527.70
2019-03-18T11:33:28.732Z,95512.20
2019-03-18T11:35:55.787Z,95511.20
2019-03-18T11:38:22.185Z,95506.38
2019-03-18T11:40:48.522Z,95503.97
2019-03-18T11:43:14.853Z,95485.95
2019-03-18T11:45:41.130Z,95487.17
2019-03-18T11:48:07.494Z,95494.45
2019-03-18T11:50:33.811Z,95496.87
2019-03-18T11:53:00.090Z,95502.58
2019-03-18T11:55:26.253Z,95502.00
2019-03-18T11:57:52.365Z,95512.23
2019-03-18T12:00:22.574Z,95513.80
2019-03-18T12:02:48.845Z,95513.08
2019-03-18T12:05:26.475Z,95521.78
2019-03-18T12:07:52.686Z,95520.70
2019-03-18T12:10:19.577Z,95516.76
2019-03-18T12:12:46.297Z,95514.33
2019-03-18T12:15:16.769Z,95528.11
2019-03-18T12:17:43.041Z,95527.48
2019-03-18T12:20:23.204Z,95522.30
2019-03-18T12:22:40.871Z,95529.80
2019-03-18T12:25:08.088Z,95529.63
2019-03-18T12:27:34.638Z,95528.91
2019-03-18T12:30:04.065Z,95524.19
2019-03-18T12:32:30.280Z,95521.98
2019-03-18T12:34:56.570Z,95524.29
2019-03-18T12:37:23.004Z,95528.83
2019-03-18T12:39:49.273Z,95531.44
2019-03-18T12:42:15.708Z,95540.16
2019-03-18T12:44:43.942Z,95546.87
2019-03-18T12:47:10.367Z,95547.42
2019-03-18T12:49:36.807Z,95547.79
2019-03-18T12:52:04.068Z,95542.66
2019-03-18T12:54:30.402Z,95546.00
2019-03-18T12:56:56.689Z,95541.73
2019-03-18T12:59:22.941Z,95540.61
2019-03-18T13:01:55.673Z,95527.05
2019-03-18T13:04:19.498Z,95536.09
2019-03-18T13:06:45.780Z,95536.11
2019-03-18T13:09:12.098Z,95541.11
2019-03-18T13:11:38.374Z,95537.38
2019-03-18T13:14:04.774Z,95534.94
2019-03-18T13:16:31.066Z,95538.70
2019-03-18T13:18:57.437Z,95545.41
2019-03-18T13:21:23.743Z,95547.84
2019-03-18T13:23:49.940Z,95541.66
2019-03-18T13:26:16.343Z,95544.09
2019-03-18T13:28:42.616Z,95535.66
2019-03-18T13:31:08.922Z,95542.65
2019-03-18T13:33:37.948Z,95537.45
2019-03-18T13:36:04.274Z,95543.55
2019-03-18T13:38:30.438Z,95545.36
2019-03-18T13:40:56.838Z,95543.87
2019-03-18T13:43:23.063Z,95558.95
2019-03-18T13:45:55.125Z,95557.84
2019-03-18T13:48:18.920Z,95553.88
2019-03-18T13:50:45.175Z,95558.73
2019-03-18T13:53:11.491Z,95562.48
2019-03-18T13:55:37.614Z,95557.53
2019-03-18T13:58:03.867Z,95563.11
2019-03-18T14:00:31.351Z,95561.98
2019-03-18T14:02:57.627Z,95556.22
2019-03-18T14:05:23.859Z,95561.49
2019-03-18T14:08:00.133Z,95568.38
2019-03-18T14:10:23.209Z,95563.92
2019-03-18T14:12:49.535Z,95558.83
2019-03-18T14:15:18.205Z,95572.09
2019-03-18T14:30:23.872Z,95554.62
2019-03-18T14:32:50.372Z,95552.39
2019-03-18T14:35:21.322Z,95564.37
2019-03-18T14:37:48.183Z,95569.23
2019-03-18T14:40:19.778Z,95554.69
2019-03-18T14:42:46.196Z,95550.73
2019-03-18T14:45:34.497Z,95540.48
2019-03-18T14:48:00.838Z,95539.08
2019-03-18T14:50:27.108Z,95547.97
2019-03-18T14:52:53.416Z,95547.77
2019-03-18T14:55:19.756Z,95559.25
2019-03-18T14:57:45.953Z,95561.98
2019-03-18T15:00:20.839Z,95551.77
2019-03-18T15:02:47.074Z,95554.20
2019-03-18T15:05:16.033Z,95549.23
2019-03-18T15:09:19.530Z,95551.38
2019-03-18T15:10:15.082Z,95537.70
2019-03-18T15:12:41.356Z,95546.20
2019-03-18T15:15:15.435Z,95550.48
2019-03-18T15:17:43.701Z,95562.33
2019-03-18T15:20:12.347Z,95568.39
2019-03-18T15:22:39.350Z,95563.33
2019-03-18T15:25:14.338Z,95555.82
2019-03-18T15:27:40.653Z,95565.12
2019-03-18T15:30:12.835Z,95576.45
2019-03-18T15:32:39.276Z,95591.95
2019-03-18T15:35:07.572Z,95585.67
2019-03-18T15:37:33.757Z,95591.33
2019-03-18T15:40:00.352Z,95587.38
2019-03-18T15:42:26.682Z,95591.83
2019-03-18T15:44:52.957Z,95598.68
2019-03-18T15:47:19.249Z,95605.79
2019-03-18T15:49:45.443Z,95618.77
2019-03-18T15:52:11.695Z,95621.80
2019-03-18T15:54:37.903Z,95612.20
2019-03-18T15:57:06.256Z,95628.11
2019-03-18T15:59:36.129Z,95635.78
2019-03-18T16:02:17.700Z,95647.72
2019-03-18T16:04:47.466Z,95631.53
2019-03-18T16:07:20.200Z,95633.48
2019-03-18T16:09:51.748Z,95633.77
2019-03-18T16:12:18.251Z,95633.28
2019-03-18T16:14:44.580Z,95637.72
2019-03-18T16:17:10.767Z,95638.05
2019-03-18T16:19:37.108Z,95640.98
2019-03-18T16:22:03.372Z,95655.47
2019-03-18T16:24:29.727Z,95656.78
2019-03-18T16:26:55.890Z,95672.34
2019-03-18T16:29:22.863Z,95672.73
2019-03-18T16:31:49.075Z,95669.78
2019-03-18T16:34:15.355Z,95665.03
2019-03-18T16:36:41.671Z,95673.23
2019-03-18T16:39:07.962Z,95674.35
2019-03-18T16:41:36.585Z,95679.95
2019-03-18T16:44:06.684Z,95673.13
2019-03-18T16:46:33.366Z,95684.89
2019-03-18T16:48:59.699Z,95689.86
2019-03-18T16:51:26.043Z,95693.67
2019-03-18T16:53:52.387Z,95690.11
2019-03-18T16:56:20.618Z,95697.52
2019-03-18T17:01:21.066Z,95702.84
2019-03-18T17:03:49.170Z,95716.50
2019-03-18T17:06:15.528Z,95712.55
2019-03-18T17:08:55.834Z,95721.36
2019-03-18T17:11:22.240Z,95711.52
2019-03-18T17:20:40.665Z,95704.05
2019-03-18T17:32:14.655Z,95715.35
2019-03-18T17:35:17.957Z,95724.04
2019-03-18T17:37:44.615Z,95731.44
2019-03-18T17:40:13.881Z,95733.14
2019-03-18T17:42:40.390Z,95724.42
2019-03-18T17:45:09.221Z,95729.38
2019-03-18T17:47:45.729Z,95733.83
2019-03-18T17:50:29.793Z,95731.58
2019-03-18T17:53:03.258Z,95737.52
2019-03-18T18:01:33.603Z,95749.73
2019-03-18T18:11:08.040Z,95755.08
2019-03-18T18:26:37.578Z,95760.52
2019-03-18T18:29:03.858Z,95772.21
2019-03-18T18:31:30.129Z,95782.09
2019-03-18T18:33:56.395Z,95784.91
2019-03-18T18:36:25.191Z,95773.41
2019-03-18T18:38:50.663Z,95767.33
2019-03-18T18:41:18.565Z,95773.27
2019-03-18T18:43:44.833Z,95776.27
2019-03-18T18:46:11.185Z,95767.75
2019-03-18T18:48:37.467Z,95782.89
2019-03-18T18:51:03.759Z,95792.28
2019-03-18T18:53:30.007Z,95790.81
2019-03-18T18:55:56.159Z,95783.64
2019-03-18T18:58:22.090Z,95787.77
2019-03-18T19:00:48.131Z,95797.95
2019-03-18T19:03:14.649Z,95791.56
2019-03-18T19:05:40.853Z,95798.81
2019-03-18T19:08:07.001Z,95799.83
2019-03-18T19:10:33.276Z,95798.36
2019-03-18T19:12:59.506Z,95794.94
2019-03-18T19:15:27.662Z,95801.17
2019-03-18T19:17:53.967Z,95811.05
2019-03-18T19:20:20.293Z,95812.25
2019-03-18T19:22:47.028Z,95812.43
2019-03-18T19:25:14.334Z,95815.06
2019-03-18T19:27:40.522Z,95819.31
2019-03-18T19:30:12.426Z,95806.16
2019-03-18T19:32:38.373Z,95814.05
2019-03-18T19:35:04.608Z,95813.75
2019-03-18T19:37:30.945Z,95813.75
2019-03-18T19:39:56.971Z,95821.30
2019-03-18T19:42:23.314Z,95826.62
2019-03-18T19:44:49.583Z,95828.61
2019-03-18T19:47:15.955Z,95822.59
2019-03-18T19:49:42.076Z,95820.30
2019-03-18T19:52:08.329Z,95819.17
2019-03-18T19:54:34.504Z,95824.76
2019-03-18T19:57:00.692Z,95828.36
2019-03-18T19:59:26.981Z,95837.26
2019-03-18T20:01:53.355Z,95845.45
2019-03-18T20:04:27.242Z,95849.39
2019-03-18T20:06:53.332Z,95856.14
2019-03-18T20:09:19.812Z,95853.02
2019-03-18T20:11:46.154Z,95854.06
2019-03-18T20:14:12.422Z,95857.45
2019-03-18T20:16:38.762Z,95863.66
2019-03-18T20:19:05.042Z,95868.55
2019-03-18T20:21:31.154Z,95862.70
2019-03-18T20:24:01.009Z,95849.03
2019-03-18T20:26:27.038Z,95868.94
2019-03-18T20:28:56.589Z,95868.63
2019-03-18T20:31:26.024Z,95873.88
2019-03-18T20:33:50.685Z,95875.89
2019-03-18T20:36:17.018Z,95885.73
2019-03-18T20:38:43.340Z,95882.00
2019-03-18T20:41:29.052Z,95880.20
2019-03-18T20:43:58.714Z,95885.94
2019-03-18T20:46:31.034Z,95888.41
2019-03-18T20:54:55.276Z,95899.59
2019-03-18T20:57:41.182Z,95903.01
2019-03-18T20:59:46.607Z,95898.28
2019-03-18T21:02:12.875Z,95898.94
2019-03-18T21:04:42.709Z,95903.89
2019-03-18T21:07:12.848Z,95890.42
2019-03-18T21:09:39.108Z,95896.67
2019-03-18T21:12:05.319Z,95895.02
2019-03-18T21:14:31.662Z,95898.34
2019-03-18T21:16:58.038Z,95896.21
2019-03-18T21:19:24.388Z,95901.95
2019-03-18T21:21:50.718Z,95906.56
2019-03-18T21:24:22.999Z,95906.61
2019-03-18T21:26:46.488Z,95915.98
2019-03-18T21:29:12.806Z,95921.07
2019-03-18T21:31:38.961Z,95928.06
2019-03-18T21:34:05.275Z,95916.63
2019-03-18T21:36:37.852Z,95933.98
2019-03-18T21:38:59.703Z,95944.00
2019-03-18T21:41:27.235Z,95939.55
2019-03-18T21:43:53.846Z,95947.77
2019-03-18T21:46:20.166Z,95946.11
2019-03-18T21:48:46.463Z,95953.02
2019-03-18T21:51:12.767Z,95944.97
2019-03-18T21:53:39.076Z,95947.78
2019-03-18T21:56:05.509Z,95954.56
2019-03-18T21:58:33.979Z,95945.91
2019-03-18T22:01:00.239Z,95951.00
2019-03-18T22:03:26.346Z,95952.00
2019-03-18T22:05:52.792Z,95952.80
2019-03-18T22:08:19.164Z,95955.30
2019-03-18T22:10:45.474Z,95960.11
2019-03-18T22:13:11.769Z,95971.61
2019-03-18T22:15:38.013Z,95975.86
2019-03-18T22:18:05.522Z,95972.09
2019-03-18T22:20:32.885Z,95967.38
2019-03-18T22:22:59.090Z,95968.52
2019-03-18T22:25:25.459Z,95964.75
2019-03-18T22:27:51.777Z,95969.66
2019-03-18T22:30:19.954Z,95970.04
2019-03-18T22:32:46.210Z,95978.91
2019-03-18T22:35:12.598Z,95976.60
2019-03-18T22:37:38.953Z,95986.64
2019-03-18T22:40:10.100Z,95966.34
2019-03-18T22:42:38.897Z,95963.27
2019-03-18T22:45:07.792Z,95966.20
2019-03-18T22:47:35.520Z,95978.34
2019-03-18T22:50:03.512Z,95979.31
2019-03-18T22:52:29.778Z,95977.39
2019-03-18T22:54:56.388Z,95979.03
2019-03-18T22:57:22.718Z,95989.68
2019-03-18T22:59:49.127Z,95994.09
2019-03-18T23:02:15.516Z,95989.02
2019-03-18T23:04:41.819Z,95987.88
2019-03-18T23:07:39.354Z,95994.77
2019-03-18T23:10:06.498Z,95992.15
2019-03-18T23:12:32.811Z,95991.97
2019-03-18T23:14:58.992Z,95990.52
2019-03-18T23:17:25.288Z,95995.59
2019-03-18T23:19:51.511Z,95994.11
2019-03-18T23:22:17.825Z,96001.97
2019-03-18T23:28:20.442Z,95997.21
2019-03-18T23:30:46.769Z,95999.34
2019-03-18T23:33:12.949Z,96009.19
2019-03-18T23:35:39.254Z,95994.76
2019-03-18T23:38:05.570Z,96011.30
2019-03-18T23:40:31.897Z,96007.20
2019-03-18T23:42:58.233Z,96009.50
2019-03-18T23:45:24.535Z,96012.77
2019-03-18T23:47:50.860Z,96020.31
2019-03-18T23:50:17.119Z,96022.58
2019-03-18T23:52:43.422Z,96020.63
2019-03-18T23:55:18.431Z,96026.34
2019-03-18T23:57:37.939Z,96025.53
